Time;durP1;ratioP1;P1;durP2;ratioP2;P2;SDS_P1;SDS_P2;PMS_P1;PMS_P2;Temp;Humidity;BMP_temperature;BMP_pressure;BME280_temperature;BME280_humidity;BME280_pressure;Samples;Min_cycle;Max_cycle;Signal;HPM_P1;HPM_P2
2022/10/26 05:05:24;;;;;;;16.75;10.98;;;;;;;10.63;100.00;101284.94;5039366;28;20484;-72
2022/10/26 05:07:54;;;;;;;15.60;10.32;;;;;;;10.80;100.00;101285.69;5030116;28;20041;-73
2022/10/26 05:10:20;;;;;;;15.07;10.35;;;;;;;10.73;100.00;101278.75;5017408;28;20017;-72
2022/10/26 05:12:50;;;;;;;16.63;9.57;;;;;;;10.86;100.00;101284.19;5076396;22;20067;-73
2022/10/26 05:15:16;;;;;;;17.15;10.20;;;;;;;10.80;100.00;101282.88;5036892;28;20384;-71
2022/10/26 05:17:41;;;;;;;16.48;9.93;;;;;;;10.65;100.00;101279.78;5040903;28;20037;-72
2022/10/26 05:20:11;;;;;;;18.35;10.45;;;;;;;10.64;100.00;101271.75;5044308;28;20419;-73
2022/10/26 05:22:37;;;;;;;18.63;11.10;;;;;;;10.62;100.00;101274.91;5045845;28;20527;-71
2022/10/26 05:25:02;;;;;;;20.13;12.00;;;;;;;10.61;100.00;101264.09;5034439;28;20036;-71
2022/10/26 05:27:28;;;;;;;20.17;10.65;;;;;;;10.66;100.00;101267.41;5038387;28;20033;-74
2022/10/26 05:29:53;;;;;;;24.02;11.55;;;;;;;10.64;100.00;101268.94;5036951;28;20428;-72
2022/10/26 05:32:18;;;;;;;14.25;9.68;;;;;;;10.72;100.00;101265.13;5043259;28;20091;-72
2022/10/26 05:34:43;;;;;;;16.55;10.10;;;;;;;10.70;100.00;101257.06;5039588;28;20028;-72
2022/10/26 05:37:09;;;;;;;17.45;9.88;;;;;;;10.70;100.00;101257.06;5049539;28;20060;-73
2022/10/26 05:39:34;;;;;;;15.07;10.20;;;;;;;10.62;100.00;101248.91;5033169;28;20041;-71
2022/10/26 05:41:59;;;;;;;18.50;10.57;;;;;;;10.61;100.00;101253.72;5042832;28;20119;-71
2022/10/26 05:44:25;;;;;;;17.50;10.40;;;;;;;10.74;100.00;101262.75;5046304;28;20051;-71
2022/10/26 05:46:50;;;;;;;15.85;9.80;;;;;;;10.75;100.00;101265.19;5051802;28;20025;-71
2022/10/26 05:49:15;;;;;;;18.05;10.48;;;;;;;10.70;100.00;101267.47;5039350;28;20120;-74
2022/10/26 05:51:40;;;;;;;19.35;12.57;;;;;;;10.68;100.00;101267.84;5051349;28;20048;-71
2022/10/26 05:54:06;;;;;;;18.63;11.55;;;;;;;10.77;100.00;101264.81;5049271;28;20052;-73
2022/10/26 05:56:35;;;;;;;13.35;8.70;;;;;;;10.74;100.00;101274.75;5047490;28;20051;-72
2022/10/26 05:59:02;;;;;;;15.00;10.60;;;;;;;10.63;100.00;101273.75;5040444;28;20189;-72
2022/10/26 06:02:03;;;;;;;16.95;10.38;;;;;;;10.65;100.00;101265.78;5041632;28;20748;-72
2022/10/26 06:04:40;;;;;;;15.00;9.55;;;;;;;10.71;100.00;101275.50;5007954;28;20053;-73
2022/10/26 06:07:14;;;;;;;19.10;10.77;;;;;;;10.64;100.00;101269.75;5040830;28;20035;-74
2022/10/26 06:09:40;;;;;;;16.05;10.43;;;;;;;10.88;100.00;101273.41;5039004;28;20041;-73
2022/10/26 06:12:06;;;;;;;26.17;11.75;;;;;;;10.72;100.00;101268.72;5045751;28;20049;-75
2022/10/26 06:14:33;;;;;;;120.78;19.30;;;;;;;10.74;100.00;101269.16;5044418;28;20059;-71
2022/10/26 06:17:19;;;;;;;22.33;10.70;;;;;;;10.81;100.00;101264.88;5023603;28;20215;-73
2022/10/26 06:20:07;;;;;;;30.85;12.52;;;;;;;10.72;100.00;101257.53;5043177;28;20037;-71
2022/10/26 06:22:49;;;;;;;22.85;10.27;;;;;;;10.72;100.00;101265.13;5042779;28;20377;-74
2022/10/26 06:25:26;;;;;;;19.85;10.68;;;;;;;10.78;100.00;101264.44;5045412;28;20033;-72
2022/10/26 06:28:26;;;;;;;24.95;11.07;;;;;;;10.76;100.00;101266.00;5051389;28;20084;-72
2022/10/26 06:30:52;;;;;;;24.95;11.45;;;;;;;10.73;100.00;101267.56;5032164;28;20473;-74
2022/10/26 06:33:18;;;;;;;21.50;10.10;;;;;;;10.91;100.00;101272.69;5041072;28;20039;-74
2022/10/26 06:36:14;;;;;;;19.55;10.05;;;;;;;10.85;100.00;101274.16;5044479;28;20436;-73
2022/10/26 06:38:43;;;;;;;21.33;10.45;;;;;;;10.80;100.00;101282.88;5039844;28;20029;-71
2022/10/26 06:41:11;;;;;;;15.43;8.77;;;;;;;10.81;100.00;101278.88;5049679;28;20040;-71
2022/10/26 06:43:36;;;;;;;16.25;8.90;;;;;;;10.87;100.00;101283.00;5046653;28;20025;-71
2022/10/26 06:46:07;;;;;;;15.95;9.05;;;;;;;10.78;100.00;101286.03;5048165;28;20562;-71
2022/10/26 06:48:46;;;;;;;14.98;9.43;;;;;;;10.84;100.00;101280.97;5043259;28;20066;-72
2022/10/26 06:51:14;;;;;;;16.02;8.82;;;;;;;10.75;100.00;101286.75;5046801;28;20025;-72
2022/10/26 06:54:05;;;;;;;22.65;9.13;;;;;;;10.82;100.00;101292.53;5047792;28;20029;-71
2022/10/26 06:56:31;;;;;;;20.85;8.15;;;;;;;10.87;100.00;101294.22;5042865;28;20303;-71
2022/10/26 06:59:05;;;;;;;17.98;9.07;;;;;;;10.83;100.00;101293.31;5030624;28;20203;-72
2022/10/26 07:01:31;;;;;;;18.00;9.43;;;;;;;10.81;100.00;101290.88;5047247;28;20323;-72
2022/10/26 07:03:56;;;;;;;17.50;9.05;;;;;;;10.81;100.00;101290.88;5045845;28;20021;-72
2022/10/26 07:06:21;;;;;;;16.88;9.45;;;;;;;10.84;100.00;101283.75;5048224;28;20379;-72
2022/10/26 07:08:47;;;;;;;13.98;8.95;;;;;;;10.92;100.00;101299.50;5032045;28;20120;-72
2022/10/26 07:11:12;;;;;;;13.15;8.15;;;;;;;11.02;100.00;101296.09;5029978;28;20400;-72
2022/10/26 07:13:37;;;;;;;15.25;8.38;;;;;;;11.05;100.00;101300.19;5048919;28;20075;-71
2022/10/26 07:16:03;;;;;;;17.73;9.05;;;;;;;11.08;100.00;101297.41;5030089;28;20028;-71
2022/10/26 07:18:28;;;;;;;21.92;8.95;;;;;;;11.10;100.00;101291.47;5050311;28;20438;-73
2022/10/26 07:20:53;;;;;;;17.13;9.38;;;;;;;11.13;100.00;101285.94;5045720;28;20087;-71
2022/10/26 07:23:19;;;;;;;13.82;8.55;;;;;;;11.20;100.00;101290.84;5041002;28;20060;-72
2022/10/26 07:25:44;;;;;;;18.92;9.38;;;;;;;11.22;100.00;101277.28;5047434;28;20032;-73
2022/10/26 07:28:10;;;;;;;16.95;10.25;;;;;;;11.36;100.00;101288.75;5042097;28;20032;-71
2022/10/26 07:30:37;;;;;;;13.05;8.20;;;;;;;11.41;100.00;101284.00;5036965;28;20108;-72
2022/10/26 07:33:10;;;;;;;15.05;8.82;;;;;;;11.47;100.00;101288.94;5039252;28;20024;-72
2022/10/26 07:35:36;;;;;;;17.58;8.23;;;;;;;11.48;100.00;101290.53;5044641;28;20245;-72
2022/10/26 07:38:03;;;;;;;16.00;8.07;;;;;;;11.53;100.00;101293.03;5022501;28;20472;-71
2022/10/26 07:40:29;;;;;;;16.27;8.50;;;;;;;11.56;100.00;101275.47;5047002;28;20025;-71
2022/10/26 07:42:59;;;;;;;16.42;8.18;;;;;;;11.61;100.00;101293.94;5040716;28;20033;-71
2022/10/26 07:45:28;;;;;;;15.68;8.35;;;;;;;11.66;100.00;101292.81;5037262;28;20511;-72
2022/10/26 07:47:53;;;;;;;17.38;7.95;;;;;;;11.66;100.00;101296.47;5042809;28;20265;-71
2022/10/26 07:50:18;;;;;;;12.23;7.63;;;;;;;11.73;100.00;101290.16;5044474;28;20048;-72
2022/10/26 07:52:44;;;;;;;16.48;7.72;;;;;;;11.82;100.00;101289.88;5046301;28;20060;-71
2022/10/26 07:55:10;;;;;;;15.10;7.75;;;;;;;11.85;100.00;101287.16;5041744;28;20590;-72
2022/10/26 07:57:36;;;;;;;18.48;7.78;;;;;;;11.93;100.00;101286.09;5041560;28;20033;-73
2022/10/26 08:00:04;;;;;;;15.90;8.57;;;;;;;11.97;100.00;101295.38;5048139;28;20075;-71
2022/10/26 08:02:30;;;;;;;15.32;7.13;;;;;;;12.03;100.00;101300.66;5046226;28;20036;-71
2022/10/26 08:04:55;;;;;;;17.67;7.50;;;;;;;12.12;100.00;101290.78;5047740;28;20037;-71
2022/10/26 08:07:20;;;;;;;13.85;7.22;;;;;;;12.17;100.00;101292.47;5044724;28;20025;-72
2022/10/26 08:09:46;;;;;;;13.93;7.25;;;;;;;12.15;100.00;101294.84;5046809;28;20088;-71
2022/10/26 08:12:15;;;;;;;13.18;7.80;;;;;;;12.17;100.00;101292.47;5055158;28;20267;-73
2022/10/26 08:14:41;;;;;;;13.02;7.07;;;;;;;12.23;100.00;101296.56;5066464;28;20446;-72
2022/10/26 08:17:06;;;;;;;13.48;7.38;;;;;;;12.23;100.00;101307.78;5070764;28;20111;-72
2022/10/26 08:19:31;;;;;;;17.52;7.22;;;;;;;12.21;100.00;101310.16;5064926;28;20028;-71
2022/10/26 08:21:56;;;;;;;13.00;6.80;;;;;;;12.30;100.00;101301.47;5066855;28;20055;-72
2022/10/26 08:24:22;;;;;;;16.30;7.28;;;;;;;12.34;100.00;101305.94;5062985;28;20506;-73
2022/10/26 08:26:47;;;;;;;13.93;7.50;;;;;;;12.33;100.00;101303.50;5063065;28;20028;-72
2022/10/26 08:29:13;;;;;;;12.27;7.82;;;;;;;12.37;100.00;101307.97;5048871;28;20024;-72
2022/10/26 08:31:38;;;;;;;12.68;7.57;;;;;;;12.42;100.00;101304.03;5059454;28;20123;-74
2022/10/26 08:34:03;;;;;;;12.57;7.10;;;;;;;12.46;100.00;101301.25;5066448;28;20032;-72
2022/10/26 08:36:28;;;;;;;14.30;6.55;;;;;;;12.54;100.00;101300.16;5068924;28;20036;-72
2022/10/26 08:38:54;;;;;;;13.93;8.15;;;;;;;12.54;100.00;101297.34;5047504;28;20039;-73
2022/10/26 08:41:30;;;;;;;13.57;7.63;;;;;;;12.60;100.00;101295.84;5068543;28;20044;-72
2022/10/26 08:44:00;;;;;;;14.43;7.55;;;;;;;12.61;100.00;101308.69;5057754;28;21469;-71
2022/10/26 08:46:40;;;;;;;19.38;7.20;;;;;;;12.71;100.00;101305.22;5057636;28;20448;-72
2022/10/26 08:49:23;;;;;;;11.85;6.72;;;;;;;12.84;100.00;101307.75;5066253;28;20458;-71
2022/10/26 08:51:53;;;;;;;15.77;7.53;;;;;;;12.89;100.00;101316.66;5064986;28;20035;-72
2022/10/26 08:54:29;;;;;;;15.00;6.53;;;;;;;12.96;100.00;101318.75;5068365;28;20371;-72
2022/10/26 08:56:59;;;;;;;10.52;6.25;;;;;;;12.92;100.00;101320.69;5067241;28;20399;-73
2022/10/26 08:59:30;;;;;;;11.55;7.47;;;;;;;12.99;100.00;101327.22;5068012;28;20024;-71
2022/10/26 09:01:56;;;;;;;12.45;7.15;;;;;;;13.04;100.00;101328.88;5060038;28;20056;-71
2022/10/26 09:04:28;;;;;;;15.23;7.50;;;;;;;12.97;100.00;101318.38;5048932;28;20139;-73
2022/10/26 09:07:12;;;;;;;;;;;;;;;13.10;100.00;101321.72;5065818;28;20560;-71
2022/10/26 09:09:56;;;;;;;13.90;6.70;;;;;;;13.31;100.00;101321.16;5063279;28;19912;-72
2022/10/26 09:12:35;;;;;;;10.02;6.07;;;;;;;13.42;100.00;101327.69;5068004;28;20041;-71
2022/10/26 09:15:07;;;;;;;12.07;6.00;;;;;;;13.58;100.00;101329.47;5046846;28;20415;-72
2022/10/26 09:18:05;;;;;;;12.45;6.20;;;;;;;13.75;100.00;101322.38;5042855;28;20041;-74
2022/10/26 09:20:43;;;;;;;13.15;5.75;;;;;;;13.93;100.00;101328.94;5066196;28;20103;-72
2022/10/26 09:23:22;;;;;;;9.95;5.35;;;;;;;13.94;100.00;101330.56;5065467;28;20025;-72
2022/10/26 09:25:57;;;;;;;10.75;4.78;;;;;;;13.98;100.00;101331.41;5065902;28;20020;-71
2022/10/26 09:28:23;;;;;;;9.27;5.35;;;;;;;14.06;100.00;101325.81;5066982;28;20020;-71
2022/10/26 09:30:49;;;;;;;12.73;4.93;;;;;;;14.25;100.00;101336.81;5048340;28;20500;-72
2022/10/26 09:33:18;;;;;;;9.52;5.18;;;;;;;14.16;100.00;101337.16;5046028;28;20545;-71
2022/10/26 09:35:51;;;;;;;8.02;4.55;;;;;;;14.19;100.00;101344.84;5079049;28;20554;-72
2022/10/26 09:38:22;;;;;;;10.50;5.88;;;;;;;14.08;100.00;101345.94;5066392;28;20032;-74
2022/10/26 09:41:11;;;;;;;8.80;4.70;;;;;;;14.26;100.00;101352.53;5064753;28;20028;-72
2022/10/26 09:43:49;;;;;;;9.57;4.38;;;;;;;14.27;100.00;101348.50;5060847;28;20502;-71
2022/10/26 09:46:24;;;;;;;9.25;4.45;;;;;;;14.23;100.00;101347.69;5044544;28;20029;-72
2022/10/26 09:48:58;;;;;;;10.75;4.88;;;;;;;14.38;100.00;101346.56;5065989;28;20079;-71
2022/10/26 09:51:26;;;;;;;10.13;4.85;;;;;;;14.55;100.00;101341.44;5065825;28;20060;-73
2022/10/26 09:53:52;;;;;;;5.95;4.60;;;;;;;14.53;100.00;101344.66;5065885;28;20517;-71
2022/10/26 09:56:18;;;;;;;15.18;4.85;;;;;;;14.62;100.00;101347.13;5063011;28;20035;-72
2022/10/26 09:58:47;;;;;;;10.40;4.32;;;;;;;14.59;100.00;101347.94;5070614;28;20475;-71
2022/10/26 10:01:28;;;;;;;7.85;5.20;;;;;;;14.78;100.00;101336.34;5066552;28;20025;-75
2022/10/26 10:04:08;;;;;;;9.43;4.40;;;;;;;14.95;100.00;101332.00;5061621;28;20443;-73
2022/10/26 10:06:33;;;;;;;7.70;4.38;;;;;;;14.88;100.00;101336.78;5066088;28;20354;-71
2022/10/26 10:09:09;;;;;;;12.73;4.00;;;;;;;15.13;99.96;101337.66;5067019;28;20035;-71
2022/10/26 10:11:53;;;;;;;9.77;4.68;;;;;;;15.28;98.18;101332.06;5060429;28;20040;-72
2022/10/26 10:14:24;;;;;;;9.07;5.15;;;;;;;15.41;98.58;101330.47;5041941;28;20488;-72
2022/10/26 10:16:57;;;;;;;7.13;3.70;;;;;;;15.29;98.13;101328.06;5047165;28;20536;-72
2022/10/26 10:19:36;;;;;;;7.85;4.30;;;;;;;15.30;99.40;101346.59;5045030;28;20033;-71
2022/10/26 10:22:24;;;;;;;8.80;4.43;;;;;;;15.44;98.02;101350.25;5026571;28;20467;-73
2022/10/26 10:24:58;;;;;;;11.15;5.32;;;;;;;15.28;98.92;101355.44;5038450;28;20029;-74
2022/10/26 10:27:24;;;;;;;8.77;4.13;;;;;;;15.30;99.15;101349.41;5040392;28;20029;-72
2022/10/26 10:29:54;;;;;;;10.50;4.47;;;;;;;15.44;98.68;101357.91;5047519;28;20111;-72
2022/10/26 10:32:30;;;;;;;10.02;4.72;;;;;;;15.40;99.75;101351.44;5046374;28;20017;-72
2022/10/26 10:34:58;;;;;;;9.15;4.03;;;;;;;15.55;98.71;101353.06;5046397;28;20013;-73
2022/10/26 10:37:44;;;;;;;8.77;4.10;;;;;;;15.82;97.95;101364.03;5043775;28;20084;-74
2022/10/26 10:40:30;;;;;;;7.07;4.22;;;;;;;15.88;97.00;101370.88;5048538;28;20064;-72
2022/10/26 10:43:12;;;;;;;8.18;3.60;;;;;;;15.76;96.74;101377.72;5047791;28;20128;-73
2022/10/26 10:45:38;;;;;;;8.03;3.87;;;;;;;15.72;97.21;101374.09;5049237;28;20039;-73
2022/10/26 10:48:20;;;;;;;7.18;3.80;;;;;;;15.81;97.10;101390.63;5048783;28;20032;-71
2022/10/26 10:50:51;;;;;;;10.63;4.13;;;;;;;15.88;97.81;101393.47;5048384;28;20024;-72
2022/10/26 10:53:42;;;;;;;8.18;4.50;;;;;;;15.88;98.39;101392.69;5046486;28;20028;-72
2022/10/26 10:56:36;;;;;;;6.63;4.07;;;;;;;16.08;96.74;101395.91;5042347;28;20086;-75
2022/10/26 10:59:29;;;;;;;12.57;5.28;;;;;;;16.18;96.69;101395.09;5044079;28;20061;-74
2022/10/26 11:02:12;;;;;;;;;;;;;;;16.24;97.03;101404.78;5035727;28;20070;-72
2022/10/26 11:05:01;;;;;;;14.05;3.67;;;;;;;16.07;97.88;101405.59;5036231;28;19987;-72
2022/10/26 11:07:30;;;;;;;9.95;3.85;;;;;;;16.05;96.34;101403.16;5044786;28;20136;-71
2022/10/26 11:09:59;;;;;;;6.50;3.78;;;;;;;16.15;98.00;101410.00;5040938;28;20029;-74
2022/10/26 11:12:32;;;;;;;11.23;4.13;;;;;;;16.44;96.83;101416.44;5049358;28;20040;-73
2022/10/26 11:15:07;;;;;;;7.45;4.05;;;;;;;16.61;95.92;101412.81;5064549;28;20419;-72
2022/10/26 11:17:47;;;;;;;8.55;3.25;;;;;;;16.65;96.25;101418.44;5063995;28;20024;-72
2022/10/26 11:20:17;;;;;;;11.18;3.92;;;;;;;16.56;97.78;101421.69;5069044;28;20078;-73
2022/10/26 11:22:52;;;;;;;13.35;5.43;;;;;;;16.66;96.69;101412.38;5046906;28;20032;-73
2022/10/26 11:25:27;;;;;;;9.93;3.40;;;;;;;17.04;94.51;101417.56;5064078;28;20032;-72
2022/10/26 11:28:00;;;;;;;8.40;3.33;;;;;;;16.98;94.72;101422.81;5068872;28;20131;-72
2022/10/26 11:30:29;;;;;;;11.68;3.30;;;;;;;17.09;94.02;101419.94;5066803;28;21010;-74
2022/10/26 11:33:04;;;;;;;10.02;3.58;;;;;;;17.16;93.91;101428.41;5065922;28;20028;-73
2022/10/26 11:35:36;;;;;;;9.45;2.97;;;;;;;17.18;94.00;101422.34;5065042;28;20352;-71
2022/10/26 11:38:16;;;;;;;5.70;2.90;;;;;;;17.33;91.81;101423.06;5063491;28;20389;-72
2022/10/26 11:41:09;;;;;;;5.82;2.88;;;;;;;17.20;92.68;101432.03;5062668;28;20059;-73
2022/10/26 11:43:43;;;;;;;;;;;;;;;17.25;91.47;101440.09;5057083;28;20115;-73
2022/10/26 11:46:28;;;;;;;8.27;3.03;;;;;;;17.23;92.29;101447.38;5065561;28;20298;-73
2022/10/26 11:49:03;;;;;;;11.30;3.42;;;;;;;17.05;93.85;101458.75;5065004;28;20162;-73
2022/10/26 11:52:16;;;;;;;5.63;2.70;;;;;;;17.23;92.83;101473.66;5060649;28;20032;-72
2022/10/26 11:55:03;;;;;;;12.23;4.10;;;;;;;17.13;92.57;101462.38;5006219;28;20036;-72
2022/10/26 11:57:32;;;;;;;6.35;3.75;;;;;;;16.91;93.64;101458.78;5048511;28;20711;-72
2022/10/26 12:00:01;;;;;;;11.50;3.53;;;;;;;17.01;93.07;101464.44;5059820;28;20402;-73
2022/10/26 12:02:26;;;;;;;10.10;3.47;;;;;;;17.03;92.54;101466.84;5058541;28;20035;-74
2022/10/26 12:04:58;;;;;;;13.88;5.15;;;;;;;16.88;94.53;101470.91;5064184;28;20040;-72
2022/10/26 12:07:30;;;;;;;9.63;4.65;;;;;;;17.04;93.12;101474.91;5066468;28;20036;-72
2022/10/26 12:09:57;;;;;;;10.55;4.22;;;;;;;17.12;93.64;101480.53;5062456;28;20095;-71
2022/10/26 12:12:31;;;;;;;9.98;4.20;;;;;;;17.06;93.25;101483.00;5063733;28;20052;-72
2022/10/26 12:15:06;;;;;;;6.90;3.63;;;;;;;17.30;93.33;101480.50;5062910;28;20134;-75
2022/10/26 12:17:42;;;;;;;11.07;5.03;;;;;;;17.32;93.40;101469.56;5060226;28;20024;-72
2022/10/26 12:20:13;;;;;;;12.52;4.50;;;;;;;17.16;94.17;101470.84;5052189;28;20028;-72
2022/10/26 12:22:39;;;;;;;7.15;4.32;;;;;;;17.17;94.84;101483.78;5050011;28;20078;-74
2022/10/26 12:25:07;;;;;;;10.35;4.50;;;;;;;17.15;95.27;101491.06;5055514;28;20033;-72
2022/10/26 12:27:38;;;;;;;11.20;5.25;;;;;;;16.99;96.12;101497.16;5061400;28;20028;-72
2022/10/26 12:30:16;;;;;;;11.07;4.60;;;;;;;16.91;96.15;101489.88;5055117;28;20097;-72
2022/10/26 12:32:44;;;;;;;9.55;4.30;;;;;;;17.04;95.69;101485.44;5055718;28;20048;-72
2022/10/26 12:35:33;;;;;;;7.88;4.05;;;;;;;16.90;96.64;101497.56;5057491;28;20527;-73
2022/10/26 12:37:59;;;;;;;8.43;4.07;;;;;;;17.00;95.77;101484.63;5056767;28;20032;-74
2022/10/26 12:40:40;;;;;;;9.90;4.47;;;;;;;16.89;96.66;101500.78;5052409;28;20025;-72
2022/10/26 12:43:14;;;;;;;12.15;5.13;;;;;;;16.93;96.82;101491.13;5044062;28;20105;-73
2022/10/26 12:45:41;;;;;;;9.75;5.18;;;;;;;17.02;97.55;101516.16;5038593;28;20039;-73
2022/10/26 12:48:24;;;;;;;8.82;5.32;;;;;;;16.77;98.46;101511.28;5056269;28;20048;-71
2022/10/26 12:50:51;;;;;;;11.98;5.63;;;;;;;16.94;97.27;101503.22;5055302;28;20103;-72
2022/10/26 12:53:19;;;;;;;15.30;5.68;;;;;;;16.90;97.99;101497.56;5050886;28;20028;-75
2022/10/26 12:55:44;;;;;;;7.45;4.95;;;;;;;17.03;97.20;101492.28;5059030;28;20479;-71
2022/10/26 12:58:49;;;;;;;9.88;5.40;;;;;;;17.30;97.02;101494.66;5060313;28;20323;-72
2022/10/26 13:01:40;;;;;;;11.57;5.43;;;;;;;17.19;96.97;101494.69;5056434;28;20033;-72
2022/10/26 13:04:19;;;;;;;13.43;5.82;;;;;;;17.35;96.15;101505.53;5063401;28;20042;-74
2022/10/26 13:07:08;;;;;;;10.07;4.47;;;;;;;17.36;94.49;101507.16;5038000;28;20036;-72
2022/10/26 13:09:33;;;;;;;11.50;4.75;;;;;;;17.31;94.41;101510.38;5061415;28;20027;-72
2022/10/26 13:12:01;;;;;;;15.13;5.28;;;;;;;17.37;94.00;101514.41;5060640;28;20418;-72
2022/10/26 13:14:31;;;;;;;8.98;5.03;;;;;;;17.30;95.13;101531.44;5044989;28;20424;-71
2022/10/26 13:17:00;;;;;;;9.20;6.18;;;;;;;17.13;96.27;101528.22;5039065;28;20087;-72
2022/10/26 13:19:29;;;;;;;7.88;4.70;;;;;;;17.41;95.94;101526.53;5042454;28;20037;-73
2022/10/26 13:21:57;;;;;;;10.07;5.07;;;;;;;17.31;96.10;101525.38;5042651;28;20120;-72
2022/10/26 13:24:26;;;;;;;13.70;5.10;;;;;;;17.35;96.48;101526.16;5039449;28;20037;-74
2022/10/26 13:27:04;;;;;;;8.25;4.82;;;;;;;17.18;97.50;101533.50;5039850;28;20503;-72
2022/10/26 13:29:30;;;;;;;7.28;4.32;;;;;;;17.28;96.04;101532.63;5034979;28;20479;-72
2022/10/26 13:31:56;;;;;;;9.18;4.88;;;;;;;17.31;95.79;101527.38;5040106;28;20032;-71
2022/10/26 13:34:25;;;;;;;14.63;4.75;;;;;;;17.23;96.39;101535.09;5023821;28;20476;-73
2022/10/26 13:37:05;;;;;;;13.93;5.22;;;;;;;17.25;96.83;101530.63;5018258;28;20495;-73
2022/10/26 13:39:43;;;;;;;11.13;5.30;;;;;;;17.14;97.17;101529.84;5030925;28;20024;-72
2022/10/26 13:42:32;;;;;;;11.30;4.82;;;;;;;17.22;96.08;101530.63;5032853;28;20040;-75
2022/10/26 13:45:16;;;;;;;7.95;5.50;;;;;;;17.34;95.80;101540.72;5034987;28;20021;-74
2022/10/26 13:48:08;;;;;;;9.02;4.68;;;;;;;17.40;95.98;101544.75;5042472;28;20036;-73
2022/10/26 13:50:50;;;;;;;6.13;4.43;;;;;;;17.39;95.51;101535.44;5006156;28;20094;-73
2022/10/26 13:53:24;;;;;;;6.22;4.68;;;;;;;17.24;95.76;101540.34;5054142;28;20029;-73
2022/10/26 13:55:59;;;;;;;7.20;5.22;;;;;;;17.24;95.86;101546.00;5049256;28;20021;-73
2022/10/26 13:58:33;;;;;;;7.25;5.00;;;;;;;17.13;94.89;101531.06;5042661;28;20071;-74
2022/10/26 14:01:08;;;;;;;14.05;4.97;;;;;;;17.20;94.48;101536.72;5051141;28;20064;-73
2022/10/26 14:03:33;;;;;;;8.57;5.30;;;;;;;17.26;93.36;101537.88;5046265;28;20472;-73
2022/10/26 14:05:58;;;;;;;11.70;4.07;;;;;;;17.20;93.51;101535.88;5055487;28;20052;-72
2022/10/26 14:08:24;;;;;;;11.63;5.00;;;;;;;17.12;94.37;101548.44;5045482;28;20092;-73
2022/10/26 14:10:58;;;;;;;6.38;4.93;;;;;;;17.25;93.64;101552.47;5038871;28;20343;-73
2022/10/26 14:13:26;;;;;;;6.50;4.45;;;;;;;17.24;93.14;101553.66;5055656;28;20036;-72
2022/10/26 14:15:54;;;;;;;8.65;4.85;;;;;;;17.14;93.92;101562.97;5070876;28;20107;-73
2022/10/26 14:18:23;;;;;;;7.95;4.63;;;;;;;17.21;92.85;101557.31;5065907;28;20107;-72
2022/10/26 14:21:05;;;;;;;8.32;3.90;;;;;;;17.27;93.50;101562.16;5069711;28;20028;-72
2022/10/26 14:23:43;;;;;;;7.80;4.15;;;;;;;17.25;92.84;101561.75;5071135;28;20075;-72
2022/10/26 14:26:18;;;;;;;6.68;4.50;;;;;;;17.18;93.13;101561.78;5071841;28;20025;-73
2022/10/26 14:28:49;;;;;;;5.32;4.00;;;;;;;17.02;93.36;101561.41;5072340;28;20111;-73
2022/10/26 14:31:29;;;;;;;6.40;4.22;;;;;;;17.06;93.32;101568.66;5067767;28;20038;-73
2022/10/26 14:33:56;;;;;;;9.35;4.65;;;;;;;16.95;93.85;101575.53;5069798;28;20107;-72
2022/10/26 14:36:28;;;;;;;8.95;4.93;;;;;;;16.94;93.85;101582.41;5068872;28;20514;-73
2022/10/26 14:38:58;;;;;;;7.45;3.60;;;;;;;16.84;93.61;101593.31;5069543;28;20067;-73
2022/10/26 14:41:25;;;;;;;8.30;5.28;;;;;;;16.80;94.67;101601.00;5075358;28;20530;-73
2022/10/26 14:43:52;;;;;;;5.60;3.28;;;;;;;16.83;93.90;101588.88;5079805;28;20040;-73
2022/10/26 14:46:19;;;;;;;10.20;4.18;;;;;;;16.78;95.36;101602.56;5062739;28;20468;-73
2022/10/26 14:48:56;;;;;;;5.70;3.78;;;;;;;16.83;94.24;101614.31;5063765;28;20028;-73
2022/10/26 14:51:30;;;;;;;6.18;4.22;;;;;;;16.85;94.66;101611.09;5065669;28;20487;-72
2022/10/26 14:53:57;;;;;;;7.90;4.43;;;;;;;16.89;94.14;101617.56;5069207;28;20024;-73
2022/10/26 14:56:27;;;;;;;7.93;4.10;;;;;;;16.86;94.48;101610.69;5060096;28;20028;-73
2022/10/26 14:58:54;;;;;;;10.07;4.05;;;;;;;16.82;96.07;101623.19;5084193;28;20055;-74
2022/10/26 15:01:22;;;;;;;5.97;3.50;;;;;;;16.78;96.26;101626.00;5083748;28;20036;-73
2022/10/26 15:04:18;;;;;;;8.32;3.97;;;;;;;16.78;96.19;101626.00;5051476;28;20033;-73
2022/10/26 15:06:44;;;;;;;5.25;3.95;;;;;;;16.92;94.71;101642.19;5054701;28;20111;-73
2022/10/26 15:09:29;;;;;;;7.82;4.22;;;;;;;16.80;95.92;101646.22;5068402;28;20430;-73
2022/10/26 15:11:55;;;;;;;4.90;3.70;;;;;;;16.84;95.66;101640.56;5068087;28;20082;-74
2022/10/26 15:14:20;;;;;;;10.13;4.72;;;;;;;16.82;96.25;101652.28;5049909;28;20498;-75
2022/10/26 15:16:53;;;;;;;9.02;4.57;;;;;;;16.74;97.35;101658.28;5053805;28;20047;-73
2022/10/26 15:19:22;;;;;;;7.28;4.40;;;;;;;16.69;97.70;101673.63;5046958;28;20486;-73
2022/10/26 15:21:49;;;;;;;7.85;5.10;;;;;;;16.72;97.00;101667.19;5047394;28;20578;-72
2022/10/26 15:24:30;;;;;;;8.52;4.80;;;;;;;16.84;96.79;101666.84;5049482;28;20025;-73
2022/10/26 15:26:56;;;;;;;8.40;3.95;;;;;;;16.76;97.89;101665.19;5044525;28;20044;-72
2022/10/26 15:29:42;;;;;;;7.47;4.30;;;;;;;16.72;98.17;101672.00;5043239;28;20028;-73
2022/10/26 15:32:24;;;;;;;7.32;4.05;;;;;;;16.65;98.76;101658.69;5014662;28;20053;-73
2022/10/26 15:35:25;;;;;;;;;;;;;;;16.73;97.68;101663.13;5043240;28;20041;-73
2022/10/26 15:37:52;;;;;;;8.98;4.35;;;;;;;16.64;98.42;101666.34;4985736;28;19914;-72
2022/10/26 15:40:18;;;;;;;8.63;5.05;;;;;;;16.56;99.17;101675.22;5039129;28;20404;-72
2022/10/26 15:42:48;;;;;;;7.55;4.90;;;;;;;16.50;99.78;101668.34;5046774;28;20095;-73
2022/10/26 15:45:23;;;;;;;8.65;5.45;;;;;;;16.45;99.38;101673.19;5044600;28;20025;-72
2022/10/26 15:47:51;;;;;;;12.65;5.78;;;;;;;16.46;100.00;101677.63;5046064;28;20029;-72
2022/10/26 15:50:25;;;;;;;9.55;5.25;;;;;;;16.43;99.88;101689.72;5050449;28;20399;-74
2022/10/26 15:53:07;;;;;;;6.80;4.65;;;;;;;16.40;100.00;101687.72;5026065;28;20104;-73
2022/10/26 15:55:32;;;;;;;18.70;10.73;;;;;;;16.44;100.00;101674.41;5033323;28;20028;-74
2022/10/26 15:57:58;;;;;;;24.60;14.55;;;;;;;16.50;100.00;101676.81;5029641;28;20450;-73
2022/10/26 16:00:23;;;;;;;14.02;11.10;;;;;;;16.43;100.00;101681.25;5019570;28;20497;-74
2022/10/26 16:02:48;;;;;;;16.77;12.77;;;;;;;16.37;100.00;101667.91;5024389;28;20033;-74
2022/10/26 16:05:15;;;;;;;13.45;10.88;;;;;;;16.37;100.00;101688.50;5042725;28;20052;-72
2022/10/26 16:07:42;;;;;;;15.43;12.63;;;;;;;16.38;100.00;101686.47;5037609;28;20033;-74
2022/10/26 16:10:14;;;;;;;21.48;15.70;;;;;;;16.36;100.00;101677.56;5028955;28;20430;-73
2022/10/26 16:12:40;;;;;;;26.50;22.70;;;;;;;16.33;100.00;101684.84;5034715;28;20079;-74
2022/10/26 16:15:06;;;;;;;19.67;15.23;;;;;;;16.28;100.00;101679.59;5031878;28;20352;-74
2022/10/26 16:17:32;;;;;;;14.02;12.73;;;;;;;16.28;100.00;101676.75;5029999;28;20025;-74
2022/10/26 16:19:58;;;;;;;10.02;8.60;;;;;;;16.27;100.00;101689.25;5031508;28;20675;-75
2022/10/26 16:22:24;;;;;;;11.38;9.93;;;;;;;16.25;100.00;101683.19;5037921;28;20033;-74
2022/10/26 16:24:49;;;;;;;18.20;16.40;;;;;;;16.24;100.00;101690.06;5042425;28;20111;-73
2022/10/26 16:27:14;;;;;;;12.93;11.63;;;;;;;16.25;100.00;101692.50;5026754;28;20029;-74
2022/10/26 16:29:40;;;;;;;10.68;9.48;;;;;;;16.21;100.00;101691.66;5028300;28;20032;-74
2022/10/26 16:32:05;;;;;;;13.70;10.27;;;;;;;16.23;100.00;101697.72;5039740;28;20931;-75
2022/10/26 16:34:30;;;;;;;13.23;9.85;;;;;;;16.21;100.00;101699.31;5028339;28;20033;-73
2022/10/26 16:36:56;;;;;;;13.15;7.60;;;;;;;16.18;100.00;101711.41;5021630;28;20048;-74
2022/10/26 16:39:21;;;;;;;9.85;7.82;;;;;;;16.16;100.00;101719.47;5044656;28;20421;-76
2022/10/26 16:41:48;;;;;;;8.07;7.30;;;;;;;16.13;100.00;101718.25;5028743;28;20435;-74